This is the latest recevied weather packets stored in our database for station/object N4OOJ-13. If no packets are shown the sender has not sent any weather packets the latest 10 day(s).
| Time | Temp. | Humidity | Pressure | Rain* | Wind** | Luminosity | Snow |
|---|---|---|---|---|---|---|---|
| 1787701227 | 28.33° C | 85% | 1018 hPa | 0 mm | - | - | - |
| 1787700622 | 28.89° C | 84% | 1017.9 hPa | 0 mm | - | - | - |
| 1787700024 | 28.89° C | 83% | 1017.7 hPa | 0 mm | - | - | - |
| 1787699416 | 29.44° C | 82% | 1017.6 hPa | 0 mm | - | - | - |
| 1787698830 | 30.56° C | 78% | 1017.6 hPa | 0 mm | - | - | - |
| 1787698225 | 31.11° C | 78% | 1017.6 hPa | 0 mm | - | - | - |
| 1787697622 | 31.11° C | 78% | 1017.8 hPa | 0 mm | - | - | - |
| 1787697016 | 31.11° C | 76% | 1017.9 hPa | 0 mm | - | - | - |
| 1787696423 | 33.33° C | 71% | 1017.6 hPa | 0 mm | - | - | - |
| 1787695818 | 32.78° C | 73% | 1017.7 hPa | 0 mm | - | - | - |
| 1787695218 | 31.67° C | 75% | 1017.7 hPa | 0 mm | - | - | - |
| 1787694630 | 31.11° C | 77% | 1017.7 hPa | 0 mm | - | - | - |
| 1787694025 | 31.67° C | 75% | 1017.3 hPa | 0 mm | - | - | - |
| 1787693425 | 32.78° C | 71% | 1017.4 hPa | 0 mm | - | - | - |
| 1787692819 | 31.67° C | 74% | 1017.3 hPa | 0 mm | - | - | - |
| 1787692230 | 31.67° C | 75% | 1017.4 hPa | 0 mm | - | - | - |
| 1787691630 | 32.22° C | 72% | 1017.4 hPa | 0 mm | - | - | - |
| 1787691031 | 32.22° C | 73% | 1017.2 hPa | 0 mm | - | - | - |
| 1787690424 | 32.22° C | 71% | 1016.9 hPa | 0 mm | - | - | - |
| 1787689819 | 33.33° C | 61% | 1016.8 hPa | 0 mm | - | - | - |
| 1787689231 | 32.78° C | 64% | 1016.8 hPa | 0 mm | - | - | - |
| 1787688625 | 32.78° C | 61% | 1016.8 hPa | 0 mm | - | - | - |
| 1787688021 | 33.89° C | 57% | 1016.8 hPa | 0 mm | - | - | - |
| 1787687434 | 34.44° C | 53% | 1016.9 hPa | 0 mm | - | - | - |
| 1787686833 | 35° C | 54% | 1016.9 hPa | 0 mm | - | - | - |
* Rain latest hour (hover to see other rain measurements)
** Current wind speed in m/s (hover to see current wind gust speed)